createdAt,value
2018-06-27T01:31:54.521Z,88.26
2018-06-27T01:31:55.094Z,88.36
2018-06-27T01:31:55.693Z,88.36
2018-06-27T01:31:56.292Z,88.36
2018-06-27T01:31:56.892Z,88.17
2018-06-27T01:31:57.491Z,88.36
2018-06-27T01:31:58.095Z,88.36
2018-06-27T01:31:58.695Z,88.36
2018-06-27T01:32:52.172Z,88.36
2018-06-27T01:32:52.745Z,88.26
2018-06-27T01:32:53.345Z,88.55
2018-06-27T01:32:53.945Z,88.17
2018-06-27T01:32:54.545Z,88.26
2018-06-27T01:32:55.148Z,88.17
2018-06-27T01:32:55.748Z,88.26
2018-06-27T01:32:56.344Z,88.17
2018-06-27T01:33:50.848Z,88.17
2018-06-27T01:33:51.419Z,88.07
2018-06-27T01:33:52.020Z,88.55
2018-06-27T01:33:52.620Z,88.45
2018-06-27T01:33:53.220Z,88.45
2018-06-27T01:33:53.819Z,88.45
2018-06-27T01:33:54.422Z,88.55
2018-06-27T01:33:55.024Z,87.98
2018-06-27T01:34:48.501Z,88.07
2018-06-27T01:34:49.075Z,87.69
2018-06-27T01:34:49.675Z,87.88
2018-06-27T01:34:50.276Z,87.98
2018-06-27T01:34:50.873Z,87.98
2018-06-27T01:34:51.473Z,87.79
2018-06-27T01:34:52.076Z,87.98
2018-06-27T01:34:52.673Z,87.88
2018-06-27T01:35:47.177Z,87.88
2018-06-27T01:35:47.749Z,87.98
2018-06-27T01:35:48.348Z,87.98
2018-06-27T01:35:48.948Z,87.69
2018-06-27T01:35:49.548Z,87.88
2018-06-27T01:35:50.148Z,88.17
2018-06-27T01:35:50.749Z,88.26
2018-06-27T01:35:51.347Z,87.79
2018-06-27T01:36:44.830Z,87.69
2018-06-27T01:36:45.403Z,87.50
2018-06-27T01:36:46.002Z,87.50
2018-06-27T01:36:46.623Z,87.40
2018-06-27T01:36:47.203Z,87.31
2018-06-27T01:36:47.803Z,87.40
2018-06-27T01:36:48.403Z,87.40
2018-06-27T01:36:49.003Z,87.31
2018-06-27T01:37:55.182Z,87.40
2018-06-27T01:37:55.749Z,87.31
2018-06-27T01:37:56.349Z,87.54
2018-06-27T01:37:56.949Z,87.50
2018-06-27T01:37:57.555Z,87.50
2018-06-27T01:37:58.147Z,87.50
2018-06-27T01:37:58.749Z,87.50
2018-06-27T01:37:59.348Z,87.50
2018-06-27T01:38:53.855Z,87.69
2018-06-27T01:38:54.427Z,87.69
2018-06-27T01:38:55.027Z,87.69
2018-06-27T01:38:55.627Z,87.12
2018-06-27T01:38:56.227Z,87.31
2018-06-27T01:38:56.825Z,87.74
2018-06-27T01:38:57.426Z,87.31
2018-06-27T01:38:58.030Z,87.79
2018-06-27T01:39:52.538Z,87.69
2018-06-27T01:39:53.104Z,87.60
2018-06-27T01:39:53.704Z,87.12
2018-06-27T01:39:54.303Z,87.69
2018-06-27T01:39:54.903Z,87.12
2018-06-27T01:39:55.503Z,87.12
2018-06-27T01:39:56.104Z,87.31
2018-06-27T01:39:56.704Z,87.79
2018-06-27T01:40:51.207Z,87.40
2018-06-27T01:40:51.780Z,87.50
2018-06-27T01:40:52.379Z,87.79
2018-06-27T01:40:52.979Z,87.60
2018-06-27T01:40:53.579Z,87.50
2018-06-27T01:40:54.180Z,87.40
2018-06-27T01:40:54.778Z,87.50
2018-06-27T01:40:55.379Z,87.60
2018-06-27T01:41:48.862Z,87.40
2018-06-27T01:41:49.431Z,87.35
2018-06-27T01:41:50.034Z,87.50
2018-06-27T01:41:50.632Z,87.40
2018-06-27T01:41:51.232Z,87.40
2018-06-27T01:41:51.830Z,87.50
2018-06-27T01:41:52.431Z,87.40
2018-06-27T01:41:53.032Z,87.40
2018-06-27T01:42:46.512Z,87.69
2018-06-27T01:42:47.086Z,87.21
2018-06-27T01:42:47.684Z,87.40
2018-06-27T01:42:48.283Z,87.45
2018-06-27T01:42:48.885Z,87.40
2018-06-27T01:42:49.482Z,87.40
2018-06-27T01:42:50.083Z,87.45
2018-06-27T01:42:50.684Z,87.40
2018-06-27T01:43:45.187Z,87.16
2018-06-27T01:43:45.767Z,87.16
2018-06-27T01:43:46.363Z,87.35
2018-06-27T01:43:46.958Z,87.26
2018-06-27T01:43:47.557Z,87.35
2018-06-27T01:43:48.158Z,87.16
2018-06-27T01:43:48.758Z,87.16
2018-06-27T01:43:49.358Z,87.16
2018-06-27T01:44:42.840Z,87.07
2018-06-27T01:44:43.411Z,86.88
2018-06-27T01:44:44.013Z,87.07
2018-06-27T01:44:44.616Z,87.07
2018-06-27T01:44:45.210Z,87.07
2018-06-27T01:44:45.810Z,87.16
2018-06-27T01:44:46.411Z,87.16
2018-06-27T01:44:47.015Z,87.16
2018-06-27T01:45:41.514Z,87.26
2018-06-27T01:45:42.087Z,86.98
2018-06-27T01:45:42.687Z,86.88
2018-06-27T01:45:43.286Z,87.26
2018-06-27T01:45:43.890Z,87.07
2018-06-27T01:45:44.487Z,86.78
2018-06-27T01:45:45.088Z,87.16
2018-06-27T01:45:45.685Z,87.16
2018-06-27T01:46:39.170Z,86.69
2018-06-27T01:46:39.737Z,86.88
2018-06-27T01:46:40.342Z,86.78
2018-06-27T01:46:40.940Z,86.78
2018-06-27T01:46:41.538Z,86.78
2018-06-27T01:46:42.137Z,86.69
2018-06-27T01:46:42.739Z,86.69
2018-06-27T01:46:43.338Z,86.78
2018-06-27T01:47:36.820Z,87.16
2018-06-27T01:47:37.390Z,86.98
2018-06-27T01:47:37.992Z,87.16
2018-06-27T01:47:38.590Z,87.16
2018-06-27T01:47:39.189Z,87.07
2018-06-27T01:47:39.790Z,86.98
2018-06-27T01:47:40.392Z,87.16
2018-06-27T01:47:40.988Z,87.16
2018-06-27T01:48:35.492Z,86.98
2018-06-27T01:48:36.066Z,86.98
2018-06-27T01:48:36.664Z,87.16
2018-06-27T01:48:37.264Z,87.16
2018-06-27T01:48:37.866Z,87.16
2018-06-27T01:48:38.465Z,86.88
2018-06-27T01:48:39.065Z,87.16
2018-06-27T01:48:39.664Z,87.07
2018-06-27T01:49:33.146Z,86.98
2018-06-27T01:49:33.718Z,86.98
2018-06-27T01:49:34.318Z,86.59
2018-06-27T01:49:34.918Z,86.98
2018-06-27T01:49:35.518Z,86.98
2018-06-27T01:49:36.118Z,86.88
2018-06-27T01:49:36.717Z,86.98
2018-06-27T01:49:37.325Z,86.98
2018-06-27T01:50:30.791Z,87.07
2018-06-27T01:50:31.365Z,86.78
2018-06-27T01:50:31.964Z,86.69
2018-06-27T01:50:32.566Z,86.69
2018-06-27T01:50:33.165Z,86.78
2018-06-27T01:50:33.767Z,87.07
2018-06-27T01:50:34.366Z,86.69
2018-06-27T01:50:34.965Z,86.69
2018-06-27T01:51:29.468Z,86.88
2018-06-27T01:51:30.041Z,87.35
2018-06-27T01:51:30.644Z,87.26
2018-06-27T01:51:31.241Z,87.16
2018-06-27T01:51:31.840Z,87.07
2018-06-27T01:51:32.439Z,87.26
2018-06-27T01:51:33.069Z,87.07
2018-06-27T01:51:33.639Z,87.07
2018-06-27T01:52:27.119Z,87.26
2018-06-27T01:52:27.693Z,87.26
2018-06-27T01:52:28.293Z,87.07
2018-06-27T01:52:28.893Z,87.16
2018-06-27T01:52:29.493Z,87.16
2018-06-27T01:52:30.093Z,87.07
2018-06-27T01:52:30.695Z,87.26
2018-06-27T01:52:31.293Z,86.88
2018-06-27T01:53:25.253Z,87.07
2018-06-27T01:53:25.829Z,87.16
2018-06-27T01:53:26.427Z,87.16
2018-06-27T01:53:27.026Z,87.16
2018-06-27T01:53:27.626Z,87.07
2018-06-27T01:53:28.226Z,87.16
2018-06-27T01:53:28.826Z,87.07
2018-06-27T01:54:43.312Z,87.74
2018-06-27T01:54:43.885Z,87.74
2018-06-27T01:54:44.485Z,87.64
2018-06-27T01:54:45.094Z,87.64
2018-06-27T01:54:45.692Z,87.45
2018-06-27T01:54:46.287Z,87.74
2018-06-27T01:54:46.885Z,87.64
2018-06-27T01:54:47.484Z,87.64
2018-06-27T01:55:41.988Z,87.54
2018-06-27T01:55:42.561Z,87.74
2018-06-27T01:55:43.165Z,87.54
2018-06-27T01:55:43.761Z,87.45
2018-06-27T01:55:44.361Z,87.64
2018-06-27T01:55:44.962Z,87.54
2018-06-27T01:55:45.560Z,87.54
2018-06-27T01:55:46.161Z,87.64
2018-06-27T01:56:40.671Z,87.35
2018-06-27T01:56:41.236Z,87.74
2018-06-27T01:56:41.836Z,87.35
2018-06-27T01:56:42.437Z,87.45
2018-06-27T01:56:43.037Z,87.45
2018-06-27T01:56:43.636Z,87.35
2018-06-27T01:56:44.236Z,87.64
2018-06-27T01:56:44.835Z,87.35
2018-06-27T01:57:38.314Z,87.54
2018-06-27T01:57:38.889Z,87.54
2018-06-27T01:57:39.489Z,87.45
2018-06-27T01:57:40.094Z,87.35
2018-06-27T01:57:40.690Z,87.35
2018-06-27T01:57:41.289Z,87.54
2018-06-27T01:57:41.889Z,87.54
2018-06-27T01:57:42.489Z,87.35
2018-06-27T01:58:36.992Z,87.54
2018-06-27T01:58:37.564Z,87.26
2018-06-27T01:58:38.165Z,87.45
2018-06-27T01:58:38.764Z,87.45
2018-06-27T01:58:39.364Z,87.74
2018-06-27T01:58:39.963Z,87.45
2018-06-27T01:58:40.563Z,87.54
2018-06-27T01:58:41.177Z,87.26
2018-06-27T01:59:35.668Z,87.93
2018-06-27T01:59:36.240Z,87.83
2018-06-27T01:59:36.840Z,87.74
2018-06-27T01:59:37.440Z,87.83
2018-06-27T01:59:38.040Z,87.83
2018-06-27T01:59:38.641Z,87.93
2018-06-27T01:59:39.240Z,87.74
2018-06-27T01:59:39.847Z,87.45
2018-06-27T02:00:34.345Z,87.83
2018-06-27T02:00:34.917Z,87.74
2018-06-27T02:00:35.516Z,87.74
2018-06-27T02:00:36.116Z,87.64
2018-06-27T02:00:36.715Z,87.54
2018-06-27T02:00:37.316Z,87.74
2018-06-27T02:00:37.915Z,87.54
2018-06-27T02:00:38.515Z,87.74
2018-06-27T02:01:31.993Z,87.35
2018-06-27T02:01:32.569Z,88.12
2018-06-27T02:01:33.168Z,87.83
2018-06-27T02:01:33.768Z,87.93
2018-06-27T02:01:34.368Z,88.02
2018-06-27T02:01:34.969Z,88.02
2018-06-27T02:01:35.568Z,87.74
2018-06-27T02:01:36.168Z,87.93
2018-06-27T02:02:30.671Z,87.93
2018-06-27T02:02:31.243Z,87.83
2018-06-27T02:02:31.842Z,88.31
2018-06-27T02:02:32.442Z,87.83
2018-06-27T02:02:33.042Z,88.31
2018-06-27T02:02:33.642Z,88.31
2018-06-27T02:02:34.242Z,87.97
2018-06-27T02:02:34.846Z,88.21
2018-06-27T02:03:28.320Z,87.83
2018-06-27T02:03:28.901Z,88.12
2018-06-27T02:03:29.496Z,88.12
2018-06-27T02:03:30.096Z,88.02
2018-06-27T02:03:30.695Z,88.12
2018-06-27T02:03:31.295Z,87.97
2018-06-27T02:03:31.895Z,88.02
2018-06-27T02:03:32.495Z,88.02
2018-06-27T02:04:25.973Z,88.31
2018-06-27T02:04:26.546Z,88.40
2018-06-27T02:04:27.149Z,88.31
2018-06-27T02:04:27.746Z,87.83
2018-06-27T02:04:28.345Z,88.54
2018-06-27T02:04:28.945Z,87.93
2018-06-27T02:04:29.544Z,88.50
2018-06-27T02:04:30.146Z,88.50
2018-06-27T02:05:23.613Z,88.45
2018-06-27T02:05:24.188Z,88.50
2018-06-27T02:05:24.788Z,88.21
2018-06-27T02:05:25.389Z,89.02
2018-06-27T02:05:25.988Z,88.21
2018-06-27T02:05:26.588Z,88.50
2018-06-27T02:05:27.188Z,88.88
2018-06-27T02:05:27.788Z,88.40
2018-06-27T02:06:21.276Z,88.69
2018-06-27T02:06:21.851Z,88.69
2018-06-27T02:06:22.452Z,88.83
2018-06-27T02:06:23.052Z,88.69
2018-06-27T02:06:23.650Z,88.69
2018-06-27T02:06:24.251Z,88.73
2018-06-27T02:06:24.850Z,88.88
2018-06-27T02:06:25.450Z,88.73
2018-06-27T02:07:18.927Z,88.69
2018-06-27T02:07:19.502Z,88.73
2018-06-27T02:07:20.103Z,88.92
2018-06-27T02:07:20.702Z,88.73
2018-06-27T02:07:21.302Z,89.02
2018-06-27T02:07:21.902Z,88.73
2018-06-27T02:07:22.504Z,88.92
2018-06-27T02:07:23.102Z,88.78
2018-06-27T02:08:17.606Z,88.69
2018-06-27T02:08:18.179Z,88.83
2018-06-27T02:08:18.782Z,88.83
2018-06-27T02:08:19.377Z,88.73
2018-06-27T02:08:19.976Z,88.83
2018-06-27T02:08:20.578Z,88.73
2018-06-27T02:08:21.176Z,88.83
2018-06-27T02:08:21.775Z,88.83
2018-06-27T02:09:15.256Z,88.92
2018-06-27T02:09:15.829Z,89.59
2018-06-27T02:09:16.431Z,89.50
2018-06-27T02:09:17.029Z,89.45
2018-06-27T02:09:17.632Z,89.69
2018-06-27T02:09:18.230Z,89.78
2018-06-27T02:09:18.829Z,89.59
2018-06-27T02:09:19.430Z,89.78
2018-06-27T02:10:13.933Z,89.88
2018-06-27T02:10:14.505Z,89.78
2018-06-27T02:10:15.105Z,89.78
2018-06-27T02:10:15.705Z,89.97
2018-06-27T02:10:16.306Z,89.88
2018-06-27T02:10:16.906Z,89.97
2018-06-27T02:10:17.505Z,89.83
2018-06-27T02:10:18.104Z,89.83
2018-06-27T02:11:11.586Z,90.03
2018-06-27T02:11:12.158Z,90.07
2018-06-27T02:11:12.758Z,90.03
2018-06-27T02:11:13.360Z,90.07
2018-06-27T02:11:13.957Z,90.07
2018-06-27T02:11:14.557Z,89.97
2018-06-27T02:11:15.157Z,89.88
2018-06-27T02:11:15.757Z,89.88
2018-06-27T02:12:10.267Z,90.59
2018-06-27T02:12:10.833Z,90.50
2018-06-27T02:12:11.436Z,90.45
2018-06-27T02:12:12.034Z,90.59
2018-06-27T02:12:12.639Z,90.59
2018-06-27T02:12:13.230Z,90.64
2018-06-27T02:12:13.831Z,90.69
2018-06-27T02:12:14.431Z,90.73
2018-06-27T02:13:08.893Z,90.59
2018-06-27T02:13:09.467Z,90.45
2018-06-27T02:13:10.069Z,90.55
2018-06-27T02:13:10.667Z,90.83
2018-06-27T02:13:11.270Z,90.64
2018-06-27T02:13:11.866Z,90.59
2018-06-27T02:13:12.468Z,90.59
2018-06-27T02:13:13.065Z,90.73
2018-06-27T02:14:07.611Z,90.93
2018-06-27T02:14:08.183Z,90.64
2018-06-27T02:14:08.783Z,90.64
2018-06-27T02:14:09.382Z,91.50
2018-06-27T02:14:09.984Z,90.73
2018-06-27T02:14:10.581Z,90.73
2018-06-27T02:14:11.184Z,90.93
2018-06-27T02:14:11.783Z,90.73
2018-06-27T02:15:06.287Z,90.73
2018-06-27T02:15:06.864Z,90.73
2018-06-27T02:15:07.460Z,90.83
2018-06-27T02:15:08.060Z,90.93
2018-06-27T02:15:08.660Z,90.36
2018-06-27T02:15:09.260Z,90.36
2018-06-27T02:15:09.860Z,90.83
2018-06-27T02:15:10.458Z,91.31
2018-06-27T02:16:03.941Z,90.55
2018-06-27T02:16:04.511Z,90.93
2018-06-27T02:16:05.113Z,91.31
2018-06-27T02:16:05.711Z,90.64
2018-06-27T02:16:06.310Z,90.83
2018-06-27T02:16:06.912Z,90.83
2018-06-27T02:16:07.512Z,90.83
2018-06-27T02:16:08.112Z,90.83
2018-06-27T02:17:01.589Z,91.88
2018-06-27T02:17:02.163Z,91.50
2018-06-27T02:17:02.768Z,91.50
2018-06-27T02:17:03.362Z,91.50
2018-06-27T02:17:03.961Z,91.69
2018-06-27T02:17:04.563Z,91.69
2018-06-27T02:17:05.161Z,91.50
2018-06-27T02:17:05.761Z,91.69
2018-06-27T02:17:59.241Z,91.50
2018-06-27T02:17:59.815Z,91.50
2018-06-27T02:18:00.414Z,91.50
2018-06-27T02:18:01.016Z,91.69
2018-06-27T02:18:01.615Z,91.50
2018-06-27T02:18:02.215Z,91.12
2018-06-27T02:18:02.815Z,91.50
2018-06-27T02:18:03.414Z,91.50
2018-06-27T02:18:57.918Z,91.69
2018-06-27T02:18:58.492Z,91.60
2018-06-27T02:18:59.107Z,91.60
2018-06-27T02:18:59.692Z,91.60
2018-06-27T02:19:00.290Z,91.60
2018-06-27T02:19:00.891Z,91.78
2018-06-27T02:19:01.492Z,91.69
2018-06-27T02:19:02.091Z,91.31
2018-06-27T02:19:55.569Z,91.78
2018-06-27T02:19:56.143Z,91.78
2018-06-27T02:19:56.742Z,91.98
2018-06-27T02:19:57.342Z,92.07
2018-06-27T02:19:57.942Z,91.88
2018-06-27T02:19:58.545Z,91.88
2018-06-27T02:19:59.142Z,91.78
2018-06-27T02:19:59.742Z,91.88
2018-06-27T02:20:54.246Z,92.55
2018-06-27T02:20:54.819Z,92.55
2018-06-27T02:20:55.419Z,92.55
2018-06-27T02:20:56.018Z,92.55
2018-06-27T02:20:56.618Z,91.88
2018-06-27T02:20:57.218Z,91.88
2018-06-27T02:20:57.817Z,92.55
2018-06-27T02:20:58.417Z,92.55
2018-06-27T02:21:51.895Z,92.55
2018-06-27T02:21:52.470Z,92.55
2018-06-27T02:21:53.070Z,92.07
2018-06-27T02:21:53.673Z,92.46
2018-06-27T02:21:54.271Z,92.26
2018-06-27T02:21:54.870Z,92.55
2018-06-27T02:21:55.468Z,92.55
2018-06-27T02:21:56.073Z,92.55
2018-06-27T02:22:50.573Z,92.26
2018-06-27T02:22:51.145Z,92.26
2018-06-27T02:22:51.745Z,92.65
2018-06-27T02:22:52.346Z,92.26
2018-06-27T02:22:52.945Z,92.26
2018-06-27T02:22:53.545Z,92.55
2018-06-27T02:22:54.143Z,92.26
2018-06-27T02:22:54.744Z,92.26
2018-06-27T02:23:49.249Z,91.98
2018-06-27T02:23:49.818Z,91.88
2018-06-27T02:23:50.418Z,92.36
2018-06-27T02:23:51.019Z,92.36
2018-06-27T02:23:51.623Z,92.55
2018-06-27T02:23:52.218Z,92.55
2018-06-27T02:23:52.817Z,92.26
2018-06-27T02:23:53.418Z,92.55
2018-06-27T02:24:46.898Z,91.88
2018-06-27T02:24:47.473Z,92.26
2018-06-27T02:24:48.073Z,91.21
2018-06-27T02:24:48.674Z,91.69
2018-06-27T02:24:49.273Z,91.31
2018-06-27T02:24:49.873Z,91.31
2018-06-27T02:24:50.473Z,91.60
2018-06-27T02:24:51.073Z,91.31
2018-06-27T02:25:45.576Z,91.41
2018-06-27T02:25:46.148Z,91.31
2018-06-27T02:25:46.748Z,91.50
2018-06-27T02:25:47.354Z,91.41
2018-06-27T02:25:47.947Z,91.41
2018-06-27T02:25:48.548Z,91.41
2018-06-27T02:25:49.153Z,91.31
2018-06-27T02:25:49.747Z,91.50
2018-06-27T02:26:43.226Z,92.07
2018-06-27T02:26:43.801Z,92.17
2018-06-27T02:26:44.401Z,92.17
2018-06-27T02:26:45.000Z,91.98
2018-06-27T02:26:45.601Z,92.07
2018-06-27T02:26:46.200Z,92.07
2018-06-27T02:26:46.800Z,92.17
2018-06-27T02:26:47.400Z,92.07
2018-06-27T02:27:40.878Z,92.26
2018-06-27T02:27:41.453Z,91.69
2018-06-27T02:27:42.053Z,91.98
2018-06-27T02:27:42.654Z,91.98
2018-06-27T02:27:43.253Z,91.88
2018-06-27T02:27:43.852Z,91.88
2018-06-27T02:27:44.453Z,91.88
2018-06-27T02:27:45.053Z,91.98
2018-06-27T02:28:39.557Z,92.46
2018-06-27T02:28:40.125Z,92.65
2018-06-27T02:28:40.725Z,92.36
2018-06-27T02:28:41.326Z,92.36
2018-06-27T02:28:41.926Z,92.46
2018-06-27T02:28:42.530Z,92.74
2018-06-27T02:28:43.126Z,92.36
2018-06-27T02:28:43.726Z,92.55
2018-06-27T02:29:38.235Z,92.46
2018-06-27T02:29:38.808Z,91.88
2018-06-27T02:29:39.403Z,92.26
2018-06-27T02:29:40.001Z,92.46
2018-06-27T02:29:40.605Z,92.36
2018-06-27T02:29:41.205Z,91.98
2018-06-27T02:29:41.800Z,92.26
2018-06-27T02:29:42.407Z,92.17
2018-06-27T02:30:36.908Z,92.55
2018-06-27T02:30:37.479Z,92.55
2018-06-27T02:30:38.079Z,92.46
2018-06-27T02:30:38.678Z,92.46
2018-06-27T02:30:39.279Z,92.46
2018-06-27T02:30:39.881Z,92.36
2018-06-27T02:30:40.479Z,92.36
2018-06-27T02:30:41.078Z,92.36
2018-06-27T02:31:35.582Z,91.88
2018-06-27T02:31:36.160Z,91.88
2018-06-27T02:31:36.756Z,91.88
2018-06-27T02:31:37.355Z,91.98
2018-06-27T02:31:37.954Z,91.98
2018-06-27T02:31:38.555Z,91.88
2018-06-27T02:31:39.157Z,91.88
2018-06-27T02:31:39.759Z,91.69
2018-06-27T02:32:33.233Z,91.78
2018-06-27T02:32:33.807Z,92.07
2018-06-27T02:32:34.408Z,92.07
2018-06-27T02:32:35.009Z,92.07
2018-06-27T02:32:35.609Z,92.07
2018-06-27T02:32:36.207Z,92.07
2018-06-27T02:32:36.807Z,92.07
2018-06-27T02:32:37.406Z,92.07
2018-06-27T02:33:30.886Z,91.69
2018-06-27T02:33:31.462Z,92.55
2018-06-27T02:33:32.062Z,91.98
2018-06-27T02:33:32.660Z,91.88
2018-06-27T02:33:33.259Z,91.69
2018-06-27T02:33:33.859Z,91.98
2018-06-27T02:33:34.472Z,91.88
2018-06-27T02:33:35.059Z,92.55
2018-06-27T02:34:28.540Z,92.26
2018-06-27T02:34:29.111Z,92.17
2018-06-27T02:34:29.711Z,92.17
2018-06-27T02:34:30.310Z,92.17
2018-06-27T02:34:30.911Z,92.26
2018-06-27T02:34:31.511Z,92.07
2018-06-27T02:34:32.110Z,92.26
2018-06-27T02:34:32.711Z,92.26
2018-06-27T02:35:26.187Z,92.26
2018-06-27T02:35:26.762Z,92.26
2018-06-27T02:35:27.364Z,92.26
2018-06-27T02:35:27.961Z,92.26
2018-06-27T02:35:28.563Z,92.26
2018-06-27T02:35:29.162Z,92.26
2018-06-27T02:35:29.762Z,92.17
2018-06-27T02:35:30.362Z,92.36
2018-06-27T02:36:23.840Z,92.26
2018-06-27T02:36:24.416Z,92.07
2018-06-27T02:36:25.015Z,92.36
2018-06-27T02:36:25.613Z,92.93
2018-06-27T02:36:26.213Z,92.93
2018-06-27T02:36:26.813Z,92.26
2018-06-27T02:36:27.412Z,92.26
2018-06-27T02:36:28.013Z,92.07
2018-06-27T02:37:22.517Z,92.93
2018-06-27T02:37:23.089Z,92.74
2018-06-27T02:37:23.690Z,92.83
2018-06-27T02:37:24.288Z,92.74
2018-06-27T02:37:24.891Z,92.83
2018-06-27T02:37:25.487Z,92.74
2018-06-27T02:37:26.087Z,92.83
2018-06-27T02:37:26.687Z,93.02
2018-06-27T02:38:20.167Z,92.74
2018-06-27T02:38:20.742Z,92.65
2018-06-27T02:38:21.350Z,92.65
2018-06-27T02:38:21.942Z,92.65
2018-06-27T02:38:22.541Z,92.55
2018-06-27T02:38:23.142Z,92.65
2018-06-27T02:38:23.740Z,92.65
2018-06-27T02:38:24.340Z,92.74
2018-06-27T02:39:18.800Z,93.70
2018-06-27T02:39:19.376Z,93.70
2018-06-27T02:39:19.974Z,93.70
2018-06-27T02:39:20.574Z,93.70
2018-06-27T02:39:21.174Z,93.60
2018-06-27T02:39:21.774Z,93.70
2018-06-27T02:39:22.378Z,93.51
2018-06-27T02:39:22.972Z,93.79
2018-06-27T02:40:16.495Z,93.88
2018-06-27T02:40:17.070Z,94.17
2018-06-27T02:40:17.672Z,94.07
2018-06-27T02:40:18.269Z,94.07
2018-06-27T02:40:18.869Z,93.88
2018-06-27T02:40:19.468Z,93.98
2018-06-27T02:40:20.072Z,93.98
2018-06-27T02:40:20.669Z,93.88
2018-06-27T02:41:15.172Z,94.65
2018-06-27T02:41:15.744Z,94.74
2018-06-27T02:41:16.343Z,94.36
2018-06-27T02:41:16.944Z,94.36
2018-06-27T02:41:17.544Z,94.56
2018-06-27T02:41:18.144Z,94.27
2018-06-27T02:41:18.743Z,94.36
2018-06-27T02:41:19.345Z,94.84
2018-06-27T02:42:13.848Z,94.65
2018-06-27T02:42:14.421Z,94.36
2018-06-27T02:42:15.022Z,94.36
2018-06-27T02:42:15.619Z,94.65
2018-06-27T02:42:16.222Z,94.65
2018-06-27T02:42:16.820Z,94.36
2018-06-27T02:42:17.420Z,94.46
2018-06-27T02:42:18.018Z,94.56
2018-06-27T02:43:12.523Z,94.84
2018-06-27T02:43:13.095Z,95.22
2018-06-27T02:43:13.697Z,94.84
2018-06-27T02:43:14.295Z,95.03
2018-06-27T02:43:14.898Z,94.93
2018-06-27T02:43:15.496Z,94.93
2018-06-27T02:43:16.096Z,94.93
2018-06-27T02:43:16.695Z,94.93
2018-06-27T02:44:11.199Z,95.22
2018-06-27T02:44:11.770Z,95.22
2018-06-27T02:44:12.372Z,95.22
2018-06-27T02:44:12.971Z,94.93
2018-06-27T02:44:13.570Z,94.93
2018-06-27T02:44:14.171Z,95.03
2018-06-27T02:44:14.770Z,95.22
2018-06-27T02:44:15.370Z,94.93
2018-06-27T02:45:08.848Z,95.03
2018-06-27T02:45:09.423Z,95.22
2018-06-27T02:45:10.025Z,95.12
2018-06-27T02:45:10.623Z,95.51
2018-06-27T02:45:11.223Z,95.12
2018-06-27T02:45:11.823Z,95.41
2018-06-27T02:45:12.423Z,95.41
2018-06-27T02:45:13.026Z,95.32
2018-06-27T02:46:07.526Z,95.79
2018-06-27T02:46:08.096Z,95.79
2018-06-27T02:46:08.700Z,95.79
2018-06-27T02:46:09.303Z,96.17
2018-06-27T02:46:09.897Z,95.79
2018-06-27T02:46:10.499Z,96.17
2018-06-27T02:46:11.097Z,96.56
2018-06-27T02:46:11.701Z,96.56
2018-06-27T02:47:06.201Z,96.17
2018-06-27T02:47:06.773Z,96.08
2018-06-27T02:47:07.373Z,96.08
2018-06-27T02:47:07.973Z,96.17
2018-06-27T02:47:08.573Z,96.27
2018-06-27T02:47:09.174Z,95.98
2018-06-27T02:47:09.773Z,96.27
2018-06-27T02:47:10.375Z,95.98
2018-06-27T02:48:03.853Z,96.37
2018-06-27T02:48:04.426Z,96.66
2018-06-27T02:48:05.026Z,96.66
2018-06-27T02:48:05.632Z,96.46
2018-06-27T02:48:06.226Z,96.27
2018-06-27T02:48:06.829Z,96.37
2018-06-27T02:48:07.424Z,96.75
2018-06-27T02:48:08.024Z,96.46
2018-06-27T02:49:01.504Z,96.66
2018-06-27T02:49:02.078Z,97.03
2018-06-27T02:49:02.677Z,96.66
2018-06-27T02:49:03.277Z,96.94
2018-06-27T02:49:03.876Z,97.03
2018-06-27T02:49:04.477Z,96.46
2018-06-27T02:49:05.078Z,96.66
2018-06-27T02:49:05.677Z,96.94
2018-06-27T02:50:00.183Z,96.84
2018-06-27T02:50:00.755Z,96.56
2018-06-27T02:50:01.355Z,97.03
2018-06-27T02:50:01.952Z,96.46
2018-06-27T02:50:02.552Z,96.56
2018-06-27T02:50:03.151Z,97.13
2018-06-27T02:50:03.751Z,96.84
2018-06-27T02:50:04.351Z,96.46
2018-06-27T02:50:57.831Z,96.66
2018-06-27T02:50:58.407Z,96.56
2018-06-27T02:50:59.006Z,96.66
2018-06-27T02:50:59.607Z,96.66
2018-06-27T02:51:00.206Z,96.84
2018-06-27T02:51:00.806Z,96.84
2018-06-27T02:51:01.409Z,97.13
2018-06-27T02:51:02.013Z,96.75
2018-06-27T02:51:55.483Z,96.84
2018-06-27T02:51:56.057Z,96.94
2018-06-27T02:51:56.659Z,96.84
2018-06-27T02:51:57.262Z,96.84
2018-06-27T02:51:57.858Z,96.84
2018-06-27T02:51:58.457Z,96.84
2018-06-27T02:51:59.056Z,96.84
2018-06-27T02:51:59.657Z,96.84
2018-06-27T02:52:54.162Z,96.84
2018-06-27T02:52:54.734Z,96.84
2018-06-27T02:52:55.333Z,96.84
2018-06-27T02:52:55.933Z,96.84
2018-06-27T02:52:56.533Z,96.94
2018-06-27T02:52:57.132Z,96.84
2018-06-27T02:52:57.731Z,96.94
2018-06-27T02:52:58.335Z,97.03
2018-06-27T02:53:51.812Z,96.46
2018-06-27T02:53:52.384Z,96.56
2018-06-27T02:53:52.988Z,96.46
2018-06-27T02:53:53.583Z,96.56
2018-06-27T02:53:54.183Z,96.56
2018-06-27T02:53:54.782Z,96.56
2018-06-27T02:53:55.382Z,96.37
2018-06-27T02:53:55.983Z,96.56
2018-06-27T02:54:49.462Z,96.27
2018-06-27T02:54:50.037Z,96.27
2018-06-27T02:54:50.637Z,96.27
2018-06-27T02:54:51.236Z,96.46
2018-06-27T02:54:51.836Z,96.46
2018-06-27T02:54:52.452Z,96.27
2018-06-27T02:54:53.042Z,96.46
2018-06-27T02:54:53.634Z,96.27
2018-06-27T02:55:47.113Z,96.46
2018-06-27T02:55:47.691Z,96.37
2018-06-27T02:55:48.291Z,96.46
2018-06-27T02:55:48.887Z,96.46
2018-06-27T02:55:49.489Z,96.46
2018-06-27T02:55:50.088Z,96.37
2018-06-27T02:55:50.686Z,96.37
2018-06-27T02:55:51.287Z,96.56
2018-06-27T02:56:45.790Z,97.32
2018-06-27T02:56:46.362Z,96.75
2018-06-27T02:56:46.961Z,97.03
2018-06-27T02:56:47.563Z,97.03
2018-06-27T02:56:48.162Z,96.75
2018-06-27T02:56:48.767Z,96.75
2018-06-27T02:56:49.361Z,96.84
2018-06-27T02:56:49.962Z,96.84
2018-06-27T02:57:44.466Z,97.22
2018-06-27T02:57:45.040Z,97.42
2018-06-27T02:57:45.641Z,97.03
2018-06-27T02:57:46.237Z,97.03
2018-06-27T02:57:46.838Z,97.03
2018-06-27T02:57:47.440Z,97.61
2018-06-27T02:57:48.038Z,97.13
2018-06-27T02:57:48.637Z,97.51
2018-06-27T02:58:43.142Z,98.08
2018-06-27T02:58:43.714Z,97.99
2018-06-27T02:58:44.314Z,98.08
2018-06-27T02:58:44.914Z,98.08
2018-06-27T02:58:45.515Z,97.71
2018-06-27T02:58:46.114Z,98.37
2018-06-27T02:58:46.713Z,98.37
2018-06-27T02:58:47.323Z,98.37
2018-06-27T02:59:40.795Z,97.99
2018-06-27T02:59:41.368Z,97.99
2018-06-27T02:59:41.971Z,97.80
2018-06-27T02:59:42.565Z,97.99
2018-06-27T02:59:43.166Z,97.99
2018-06-27T02:59:43.766Z,98.08
2018-06-27T02:59:44.375Z,97.89
2018-06-27T02:59:44.967Z,97.99
2018-06-27T03:00:39.471Z,98.37
2018-06-27T03:00:40.043Z,98.66
2018-06-27T03:00:40.641Z,98.56
2018-06-27T03:00:41.241Z,98.47
2018-06-27T03:00:41.842Z,98.47
2018-06-27T03:00:42.442Z,98.56
2018-06-27T03:00:43.041Z,98.66
2018-06-27T03:00:43.641Z,98.37
2018-06-27T03:01:38.145Z,98.56
2018-06-27T03:01:38.717Z,98.66
2018-06-27T03:01:39.317Z,98.66
2018-06-27T03:01:39.919Z,98.66
2018-06-27T03:01:40.516Z,98.66
2018-06-27T03:01:41.118Z,98.47
2018-06-27T03:01:41.718Z,98.47
2018-06-27T03:01:42.318Z,98.56
2018-06-27T03:02:35.851Z,98.75
2018-06-27T03:02:36.440Z,98.66
2018-06-27T03:02:36.990Z,98.56
2018-06-27T03:02:37.624Z,98.66
2018-06-27T03:02:38.171Z,99.13
2018-06-27T03:02:38.770Z,98.75
2018-06-27T03:02:39.374Z,99.04
2018-06-27T03:02:39.967Z,99.13
2018-06-27T03:03:34.473Z,99.23
2018-06-27T03:03:35.045Z,99.23
2018-06-27T03:03:35.643Z,99.42
2018-06-27T03:03:36.243Z,99.32
2018-06-27T03:03:36.844Z,99.32
2018-06-27T03:03:37.445Z,99.23
2018-06-27T03:03:38.044Z,99.90
2018-06-27T03:03:38.644Z,99.23
2018-06-27T03:04:32.124Z,99.71
2018-06-27T03:04:32.699Z,98.94
2018-06-27T03:04:33.298Z,99.61
2018-06-27T03:04:33.900Z,99.52
2018-06-27T03:04:34.497Z,99.52
2018-06-27T03:04:35.098Z,99.61
2018-06-27T03:04:35.697Z,99.61
2018-06-27T03:04:36.297Z,99.42
2018-06-27T03:05:30.803Z,99.71
2018-06-27T03:05:31.372Z,99.52
2018-06-27T03:05:31.972Z,99.52
2018-06-27T03:05:32.572Z,99.61
2018-06-27T03:05:33.175Z,99.61
2018-06-27T03:05:33.773Z,99.32